Time;durP1;ratioP1;P1;durP2;ratioP2;P2;SDS_P1;SDS_P2;PMS_P1;PMS_P2;Temp;Humidity;BMP_temperature;BMP_pressure;BME280_temperature;BME280_humidity;BME280_pressure;Samples;Min_cycle;Max_cycle;Signal;HPM_P1;HPM_P2
2023/05/16 00:00:52;;;;;;;9.00;8.07;;;;;;;9.53;100.00;95465.59;5042141;28;20469;-73
2023/05/16 00:03:18;;;;;;;8.02;7.40;;;;;;;9.56;100.00;95470.56;5050031;28;20226;-73
2023/05/16 00:05:44;;;;;;;9.10;8.23;;;;;;;9.56;100.00;95469.72;5050995;28;20032;-73
2023/05/16 00:08:10;;;;;;;8.88;8.00;;;;;;;9.57;100.00;95466.94;5049238;28;20033;-73
2023/05/16 00:10:36;;;;;;;8.43;7.03;;;;;;;9.61;100.00;95467.47;5058955;28;20035;-73
2023/05/16 00:13:02;;;;;;;8.00;7.38;;;;;;;9.64;100.00;95466.38;5043744;28;20051;-73
2023/05/16 00:15:28;;;;;;;8.63;7.68;;;;;;;9.66;100.00;95467.91;5046475;28;20566;-73
2023/05/16 00:17:58;;;;;;;8.18;7.57;;;;;;;9.68;100.00;95467.75;5044728;28;20464;-73
2023/05/16 00:20:27;;;;;;;7.97;7.43;;;;;;;9.71;100.00;95463.03;5061289;28;20037;-73
2023/05/16 00:22:59;;;;;;;8.00;7.22;;;;;;;9.78;100.00;95467.72;5049329;28;20029;-73
2023/05/16 00:25:25;;;;;;;7.38;6.65;;;;;;;9.78;100.00;95465.09;5042790;28;20068;-73
2023/05/16 00:27:50;;;;;;;7.30;6.75;;;;;;;9.91;100.00;95463.00;5050070;28;20466;-73
2023/05/16 00:30:16;;;;;;;7.95;7.40;;;;;;;10.00;100.00;95456.06;5047861;28;20025;-74
2023/05/16 00:32:42;;;;;;;10.90;7.72;;;;;;;9.91;100.00;95452.47;5049000;28;20013;-73
2023/05/16 00:35:10;;;;;;;8.55;7.85;;;;;;;10.05;100.00;95456.44;5040550;28;20025;-73
2023/05/16 00:37:36;;;;;;;8.68;7.75;;;;;;;9.88;100.00;95455.41;5049982;28;20099;-73
2023/05/16 00:40:01;;;;;;;9.50;8.45;;;;;;;9.91;100.00;95456.91;5045896;28;20057;-74
2023/05/16 00:42:27;;;;;;;9.10;8.20;;;;;;;9.95;100.00;95440.69;5049693;28;20508;-73
2023/05/16 00:44:52;;;;;;;9.57;8.35;;;;;;;9.86;100.00;95439.75;5051957;28;20448;-73
2023/05/16 00:47:18;;;;;;;8.82;8.07;;;;;;;9.81;100.00;95446.41;5047001;28;20030;-73
2023/05/16 00:49:43;;;;;;;8.68;7.88;;;;;;;9.78;100.00;95442.28;5050187;28;20435;-74
2023/05/16 00:52:09;;;;;;;7.40;6.78;;;;;;;9.78;100.00;95441.44;5046239;28;20591;-74
2023/05/16 00:54:34;;;;;;;7.18;6.68;;;;;;;9.77;100.00;95442.41;5043957;28;20035;-74
2023/05/16 00:57:00;;;;;;;6.85;6.35;;;;;;;9.71;100.00;95441.19;5052784;28;20477;-74
2023/05/16 00:59:26;;;;;;;8.43;7.53;;;;;;;9.77;100.00;95431.91;5049698;28;20025;-73
2023/05/16 01:01:52;;;;;;;8.02;7.32;;;;;;;9.82;100.00;95432.28;5052103;28;20013;-73
2023/05/16 01:04:18;;;;;;;7.90;7.15;;;;;;;9.86;100.00;95436.31;5048959;28;20020;-73
2023/05/16 01:06:44;;;;;;;8.38;7.68;;;;;;;9.89;100.00;95428.13;5054904;28;20044;-73
2023/05/16 01:09:11;;;;;;;8.75;7.95;;;;;;;9.92;100.00;95427.84;5050901;28;20031;-74
2023/05/16 01:11:53;;;;;;;8.05;7.35;;;;;;;9.90;100.00;95427.16;5053147;28;20026;-73
2023/05/16 01:14:34;;;;;;;7.35;6.28;;;;;;;9.91;100.00;95430.59;5024420;28;20371;-73
2023/05/16 01:17:31;;;;;;;6.90;6.30;;;;;;;9.93;100.00;95426.03;5049667;28;20482;-73
2023/05/16 01:20:15;;;;;;;6.75;6.25;;;;;;;9.94;100.00;95435.56;5044590;28;20115;-74
2023/05/16 01:22:44;;;;;;;6.38;5.97;;;;;;;9.96;100.00;95431.03;5053925;28;20021;-74
2023/05/16 01:25:38;;;;;;;7.40;6.43;;;;;;;9.99;100.00;95428.09;5050931;28;20390;-73
2023/05/16 01:28:05;;;;;;;7.22;6.72;;;;;;;10.03;100.00;95429.44;5053684;28;20059;-73
2023/05/16 01:30:37;;;;;;;6.70;6.30;;;;;;;10.07;100.00;95432.63;5053833;28;20048;-74
2023/05/16 01:33:02;;;;;;;7.53;6.93;;;;;;;10.09;100.00;95435.94;5044192;28;20067;-73
2023/05/16 01:35:28;;;;;;;7.25;6.57;;;;;;;10.10;100.00;95435.78;5051643;28;20016;-73
2023/05/16 01:38:17;;;;;;;5.90;5.40;;;;;;;10.11;100.00;95431.38;5055552;28;20021;-73
2023/05/16 01:41:17;;;;;;;6.68;6.18;;;;;;;10.17;100.00;95430.78;5052467;28;20037;-73
2023/05/16 01:43:47;;;;;;;7.00;6.28;;;;;;;10.20;100.00;95424.41;5031408;28;20036;-74
2023/05/16 01:46:39;;;;;;;8.57;6.32;;;;;;;10.21;100.00;95420.78;5052123;28;20029;-74
2023/05/16 01:49:16;;;;;;;6.95;6.43;;;;;;;10.22;100.00;95415.38;5059158;28;20025;-73
2023/05/16 01:51:44;;;;;;;7.65;7.05;;;;;;;10.24;100.00;95420.50;5049543;28;20091;-74
2023/05/16 01:54:12;;;;;;;7.57;6.85;;;;;;;10.24;100.00;95407.34;5052639;28;20026;-74
2023/05/16 01:56:38;;;;;;;7.28;6.68;;;;;;;10.32;100.00;95408.28;5054053;28;20024;-74
2023/05/16 01:59:05;;;;;;;6.93;6.43;;;;;;;10.33;100.00;95409.09;5054999;28;20025;-74
2023/05/16 02:01:30;;;;;;;6.90;6.30;;;;;;;10.35;100.00;95401.06;5068622;28;20071;-73
2023/05/16 02:03:57;;;;;;;6.78;6.28;;;;;;;10.39;100.00;95400.63;5066262;28;20104;-73
2023/05/16 02:06:23;;;;;;;6.68;6.20;;;;;;;10.43;100.00;95399.38;5053895;28;20013;-74
2023/05/16 02:08:48;;;;;;;6.35;5.95;;;;;;;10.48;100.00;95400.72;5055014;28;20929;-73
2023/05/16 02:11:14;;;;;;;6.82;6.32;;;;;;;10.51;100.00;95395.16;5070202;28;20119;-73
2023/05/16 02:13:39;;;;;;;6.97;6.47;;;;;;;10.52;100.00;95400.28;5050185;28;20089;-73
2023/05/16 02:16:05;;;;;;;7.25;6.65;;;;;;;10.54;100.00;95398.34;5045406;28;20034;-74
2023/05/16 02:18:30;;;;;;;7.47;6.65;;;;;;;10.54;100.00;95395.69;5051132;28;20485;-73
2023/05/16 02:20:56;;;;;;;7.22;6.60;;;;;;;10.53;100.00;95404.56;5052751;28;20116;-73
2023/05/16 02:23:21;;;;;;;7.00;6.50;;;;;;;10.56;100.00;95400.81;5052880;28;20024;-74
2023/05/16 02:25:47;;;;;;;7.10;6.68;;;;;;;10.54;100.00;95400.13;5055764;28;20509;-73
2023/05/16 02:28:12;;;;;;;6.63;6.22;;;;;;;10.57;100.00;95390.13;5052592;28;20440;-73
2023/05/16 02:30:37;;;;;;;6.55;6.05;;;;;;;10.60;100.00;95392.47;5053506;28;20097;-73
2023/05/16 02:33:03;;;;;;;6.40;5.80;;;;;;;10.63;100.00;95388.72;5053897;28;20017;-73
2023/05/16 02:35:28;;;;;;;5.57;5.18;;;;;;;10.65;100.00;95391.19;5056398;28;20075;-74
2023/05/16 02:37:54;;;;;;;6.82;5.80;;;;;;;10.65;100.00;95393.81;5052114;28;20591;-73
2023/05/16 02:40:20;;;;;;;6.63;6.13;;;;;;;10.64;100.00;95394.78;5049283;28;20044;-73
2023/05/16 02:42:45;;;;;;;6.15;5.65;;;;;;;10.65;100.00;95388.56;5054693;28;20021;-73
2023/05/16 02:45:11;;;;;;;10.73;9.20;;;;;;;10.65;100.00;95385.91;5053625;28;20025;-73
2023/05/16 02:47:36;;;;;;;10.20;7.60;;;;;;;10.64;100.00;95400.06;5055312;28;20024;-73
2023/05/16 02:50:02;;;;;;;7.13;6.43;;;;;;;10.60;100.00;95389.00;5055129;28;20032;-73
2023/05/16 02:52:28;;;;;;;7.13;6.53;;;;;;;10.62;100.00;95384.44;5054307;28;20105;-73
2023/05/16 02:54:56;;;;;;;6.03;5.63;;;;;;;10.65;100.00;95391.19;5055645;28;20489;-74
2023/05/16 02:57:21;;;;;;;6.78;6.32;;;;;;;10.65;100.00;95383.28;5055162;28;20283;-73
2023/05/16 02:59:46;;;;;;;6.85;6.35;;;;;;;10.66;100.00;95383.16;5054761;28;20029;-74
2023/05/16 03:02:12;;;;;;;6.53;6.05;;;;;;;10.68;100.00;95386.47;5055364;28;20384;-73
2023/05/16 03:04:37;;;;;;;8.07;7.47;;;;;;;10.69;100.00;95377.56;5054628;28;20025;-73
2023/05/16 03:07:03;;;;;;;7.45;6.90;;;;;;;10.68;100.00;95375.94;5055357;28;20524;-73
2023/05/16 03:09:29;;;;;;;6.68;6.20;;;;;;;10.68;100.00;95375.09;5054183;28;20023;-73
2023/05/16 03:11:54;;;;;;;6.35;5.95;;;;;;;10.67;100.00;95376.91;5055196;28;20021;-73
2023/05/16 03:14:20;;;;;;;8.68;7.82;;;;;;;10.68;100.00;95372.44;5054215;28;20021;-73
2023/05/16 03:16:45;;;;;;;7.93;7.30;;;;;;;10.70;100.00;95379.22;5055489;28;20055;-73
2023/05/16 03:19:11;;;;;;;7.30;6.60;;;;;;;10.68;100.00;95375.94;5054830;28;20069;-73
2023/05/16 03:21:36;;;;;;;6.95;6.45;;;;;;;10.67;100.00;95368.16;5054659;28;20096;-73
2023/05/16 03:24:02;;;;;;;6.45;5.85;;;;;;;10.64;100.00;95374.56;5070276;28;20033;-73
2023/05/16 03:26:28;;;;;;;7.25;6.10;;;;;;;10.66;100.00;95374.41;5055108;28;20025;-73
2023/05/16 03:28:53;;;;;;;7.03;6.15;;;;;;;10.68;100.00;95369.81;5070882;28;20017;-73
2023/05/16 03:31:19;;;;;;;7.10;6.60;;;;;;;10.68;100.00;95368.03;5055396;28;20115;-73
2023/05/16 03:33:44;;;;;;;6.45;5.95;;;;;;;10.67;100.00;95365.53;5051929;28;20412;-73
2023/05/16 03:36:10;;;;;;;6.60;6.15;;;;;;;10.65;100.00;95365.69;5050762;28;20025;-73
2023/05/16 03:38:35;;;;;;;6.72;6.20;;;;;;;10.65;100.00;95362.22;5053414;28;20017;-73
2023/05/16 03:41:01;;;;;;;6.82;6.32;;;;;;;10.68;100.00;95359.28;5054920;28;20401;-73
2023/05/16 03:43:27;;;;;;;6.95;6.45;;;;;;;10.68;100.00;95369.81;5054817;28;20017;-73
2023/05/16 03:45:52;;;;;;;6.63;6.13;;;;;;;10.72;100.00;95366.75;5055230;28;20081;-73
2023/05/16 03:48:18;;;;;;;7.07;6.38;;;;;;;10.66;100.00;95362.09;5053575;28;20017;-73
2023/05/16 03:50:43;;;;;;;7.18;6.57;;;;;;;10.71;100.00;95372.97;5054313;28;20319;-73
2023/05/16 03:53:09;;;;;;;7.93;6.97;;;;;;;10.69;100.00;95374.94;5054789;28;20048;-73
2023/05/16 03:55:35;;;;;;;7.35;6.75;;;;;;;10.66;100.00;95366.50;5053269;28;20025;-73
2023/05/16 03:58:00;;;;;;;6.57;6.10;;;;;;;10.64;100.00;95357.94;5055234;28;20048;-73
2023/05/16 04:00:26;;;;;;;6.63;6.00;;;;;;;10.63;100.00;95356.28;5055032;28;20370;-73
2023/05/16 04:02:51;;;;;;;7.22;6.65;;;;;;;10.64;100.00;95368.47;5054496;28;20108;-73
2023/05/16 04:05:17;;;;;;;6.88;6.32;;;;;;;10.64;100.00;95369.31;5047685;28;20040;-74
2023/05/16 04:07:42;;;;;;;6.65;6.13;;;;;;;10.64;100.00;95366.69;5054622;28;20055;-74
2023/05/16 04:10:09;;;;;;;7.28;6.65;;;;;;;10.61;100.00;95366.97;5054939;28;20024;-73
2023/05/16 04:12:34;;;;;;;6.78;6.28;;;;;;;10.60;100.00;95365.28;5055142;28;20013;-73
2023/05/16 04:15:01;;;;;;;6.78;6.18;;;;;;;10.57;100.00;95368.25;5054613;28;20041;-74
2023/05/16 04:17:26;;;;;;;6.97;6.32;;;;;;;10.62;100.00;95366.00;5044709;28;20033;-74
2023/05/16 04:19:52;;;;;;;6.97;6.47;;;;;;;10.70;100.00;95367.84;5054365;28;20024;-74
2023/05/16 04:22:17;;;;;;;7.60;7.00;;;;;;;10.69;100.00;95368.84;5054429;28;20047;-73
2023/05/16 04:24:42;;;;;;;7.97;7.20;;;;;;;10.70;100.00;95367.84;5054274;28;20036;-74
2023/05/16 04:27:08;;;;;;;7.28;6.53;;;;;;;10.79;100.00;95366.13;5053517;28;20029;-73
2023/05/16 04:29:34;;;;;;;6.63;6.22;;;;;;;10.74;100.00;95369.25;5052985;28;20028;-74
2023/05/16 04:31:59;;;;;;;7.22;6.72;;;;;;;10.71;100.00;95361.63;5054385;28;20050;-74
2023/05/16 04:34:26;;;;;;;10.05;6.05;;;;;;;10.73;100.00;95367.59;5057388;28;20085;-74
2023/05/16 04:36:55;;;;;;;7.35;6.75;;;;;;;10.68;100.00;95365.41;5058468;28;20028;-73
2023/05/16 04:39:21;;;;;;;7.50;6.82;;;;;;;10.72;100.00;95355.38;5058657;28;20056;-73
2023/05/16 04:41:46;;;;;;;6.80;6.32;;;;;;;10.84;100.00;95359.44;5058431;28;20024;-73
2023/05/16 04:44:12;;;;;;;6.82;6.32;;;;;;;10.74;100.00;95358.72;5045662;28;20040;-74
2023/05/16 04:46:37;;;;;;;7.32;6.75;;;;;;;10.80;100.00;95352.81;5057560;28;20021;-74
2023/05/16 04:49:03;;;;;;;7.30;6.70;;;;;;;10.74;100.00;95348.97;5058160;28;20025;-73
2023/05/16 04:51:28;;;;;;;6.97;6.47;;;;;;;10.82;100.00;95350.88;5053245;28;20020;-73
2023/05/16 04:53:54;;;;;;;8.70;6.60;;;;;;;10.81;100.00;95351.84;5056902;28;20019;-73
2023/05/16 04:56:19;;;;;;;6.88;6.30;;;;;;;10.75;100.00;95352.47;5057556;28;20025;-74
2023/05/16 04:58:45;;;;;;;6.88;6.38;;;;;;;10.78;100.00;95348.69;5052497;28;20072;-74
2023/05/16 05:01:11;;;;;;;6.72;6.10;;;;;;;10.71;100.00;95351.09;5057812;28;20039;-73
2023/05/16 05:03:36;;;;;;;6.32;5.80;;;;;;;10.77;100.00;95353.13;5056761;28;20019;-73
2023/05/16 05:06:02;;;;;;;7.15;6.55;;;;;;;10.84;100.00;95354.16;5057791;28;20021;-74
2023/05/16 05:08:27;;;;;;;7.38;6.82;;;;;;;10.79;100.00;95345.91;5057542;28;20025;-75
2023/05/16 05:10:55;;;;;;;7.10;6.55;;;;;;;10.82;100.00;95358.75;5057760;28;20043;-73
2023/05/16 05:13:20;;;;;;;7.75;7.15;;;;;;;10.77;100.00;95360.19;5057880;28;20025;-74
2023/05/16 05:15:45;;;;;;;7.10;6.50;;;;;;;10.78;100.00;95356.56;5057817;28;20028;-74
2023/05/16 05:18:11;;;;;;;7.35;6.63;;;;;;;10.75;100.00;95355.91;5039535;28;20025;-73
2023/05/16 05:20:36;;;;;;;6.70;6.20;;;;;;;10.80;100.00;95350.19;5055923;28;20423;-73
2023/05/16 05:23:02;;;;;;;6.97;6.47;;;;;;;10.84;100.00;95354.16;5057051;28;20033;-73
2023/05/16 05:25:27;;;;;;;6.82;6.32;;;;;;;10.85;100.00;95347.13;5058510;28;20051;-73
2023/05/16 05:27:53;;;;;;;7.75;7.00;;;;;;;10.87;100.00;95350.41;5058009;28;20024;-74
2023/05/16 05:30:18;;;;;;;7.10;6.50;;;;;;;10.93;100.00;95348.97;5072458;28;20021;-74
2023/05/16 05:32:44;;;;;;;6.22;5.82;;;;;;;10.93;100.00;95347.16;5056415;28;20021;-74
2023/05/16 05:35:09;;;;;;;6.75;6.25;;;;;;;10.96;100.00;95351.31;5056061;28;20108;-74
2023/05/16 05:37:35;;;;;;;7.15;6.50;;;;;;;11.01;100.00;95343.78;5054165;28;20021;-73
2023/05/16 05:40:00;;;;;;;7.32;6.72;;;;;;;10.97;100.00;95342.44;5054488;28;20068;-73
2023/05/16 05:42:26;;;;;;;6.95;6.35;;;;;;;10.97;100.00;95340.59;5048060;28;20025;-73
2023/05/16 05:44:51;;;;;;;7.68;6.95;;;;;;;10.95;100.00;95344.41;5055104;28;20013;-73
2023/05/16 05:47:17;;;;;;;8.02;6.82;;;;;;;10.93;100.00;95346.31;5057356;28;20127;-73
2023/05/16 05:49:42;;;;;;;7.28;6.63;;;;;;;10.94;100.00;95347.97;5057995;28;20089;-73
2023/05/16 05:52:08;;;;;;;8.50;7.28;;;;;;;10.92;100.00;95358.69;5057003;28;20036;-69
2023/05/16 05:54:33;;;;;;;7.30;6.80;;;;;;;10.88;100.00;95363.41;5055130;28;20028;-73
2023/05/16 05:56:59;;;;;;;7.05;6.35;;;;;;;10.86;100.00;95354.03;5055984;28;20108;-73
2023/05/16 05:59:25;;;;;;;7.68;7.00;;;;;;;10.88;100.00;95352.88;5056403;28;20036;-72
2023/05/16 06:01:51;;;;;;;8.07;7.47;;;;;;;10.87;100.00;95348.59;5056899;28;20027;-72
2023/05/16 06:04:20;;;;;;;10.50;9.45;;;;;;;10.86;100.00;95354.84;5056787;28;20433;-73
2023/05/16 06:06:45;;;;;;;14.43;11.57;;;;;;;10.85;100.00;95355.81;5055563;28;20116;-75
2023/05/16 06:09:12;;;;;;;9.10;8.35;;;;;;;10.88;100.00;95359.97;5052460;28;20061;-75
2023/05/16 06:11:38;;;;;;;13.65;7.03;;;;;;;10.88;100.00;95355.50;5055225;28;20031;-74
2023/05/16 06:14:04;;;;;;;6.82;6.35;;;;;;;10.88;100.00;95350.25;5055357;28;20056;-76
2023/05/16 06:16:29;;;;;;;9.63;6.85;;;;;;;10.91;100.00;95345.66;5054699;28;20024;-73
2023/05/16 06:18:55;;;;;;;7.50;6.90;;;;;;;10.88;100.00;95352.06;5050393;28;20060;-73
2023/05/16 06:21:21;;;;;;;7.13;6.57;;;;;;;10.84;100.00;95348.09;5051430;28;20071;-73
2023/05/16 06:23:46;;;;;;;7.10;6.50;;;;;;;10.87;100.00;95348.59;5055565;28;20032;-74
2023/05/16 06:26:12;;;;;;;9.00;6.43;;;;;;;10.87;100.00;95353.88;5055829;28;20089;-72
2023/05/16 06:28:37;;;;;;;10.35;6.28;;;;;;;10.89;100.00;95344.00;5054695;28;20017;-73
2023/05/16 06:31:03;;;;;;;7.88;7.35;;;;;;;10.89;100.00;95343.19;5054256;28;20021;-73
2023/05/16 06:33:28;;;;;;;8.00;7.35;;;;;;;10.87;100.00;95348.59;5071648;28;20083;-73
2023/05/16 06:35:53;;;;;;;7.82;7.22;;;;;;;10.93;100.00;95351.59;5053955;28;20032;-73
2023/05/16 06:38:19;;;;;;;10.95;10.02;;;;;;;10.97;100.00;95358.22;5055866;28;20404;-73
2023/05/16 06:40:45;;;;;;;8.80;7.90;;;;;;;11.06;100.00;95356.50;5049642;28;20045;-72
2023/05/16 06:43:13;;;;;;;7.93;7.43;;;;;;;11.03;100.00;95357.63;5055509;28;20029;-73
2023/05/16 06:45:39;;;;;;;9.05;8.23;;;;;;;11.05;100.00;95350.38;5056446;28;20400;-73
2023/05/16 06:48:06;;;;;;;7.60;7.00;;;;;;;11.12;100.00;95351.41;5055842;28;20056;-73
2023/05/16 06:50:32;;;;;;;8.07;7.38;;;;;;;11.11;100.00;95344.50;5054343;28;20031;-73
2023/05/16 06:52:57;;;;;;;7.82;7.13;;;;;;;11.15;100.00;95348.47;5056177;28;20410;-73
2023/05/16 06:55:23;;;;;;;8.00;7.40;;;;;;;11.20;100.00;95352.47;5056189;28;20394;-73
2023/05/16 06:57:48;;;;;;;8.20;7.50;;;;;;;11.37;100.00;95358.66;5055832;28;20032;-72
2023/05/16 07:00:14;;;;;;;7.97;7.38;;;;;;;11.31;100.00;95354.84;5054483;28;20032;-73
2023/05/16 07:02:40;;;;;;;9.07;7.38;;;;;;;11.36;100.00;95357.03;5055748;28;20386;-73
2023/05/16 07:05:06;;;;;;;8.85;8.18;;;;;;;11.37;100.00;95358.66;5055422;28;20039;-73
2023/05/16 07:07:31;;;;;;;9.00;8.15;;;;;;;11.45;100.00;95356.91;5055591;28;20480;-72
2023/05/16 07:09:56;;;;;;;9.85;8.93;;;;;;;11.38;100.00;95352.41;5057724;28;20017;-72
2023/05/16 07:12:22;;;;;;;9.10;8.35;;;;;;;11.53;100.00;95360.56;5055264;28;20428;-73
2023/05/16 07:14:47;;;;;;;9.32;8.63;;;;;;;11.40;100.00;95353.94;5059651;28;20027;-73
2023/05/16 07:17:13;;;;;;;8.77;7.88;;;;;;;11.37;100.00;95354.22;5051040;28;20056;-72
2023/05/16 07:19:38;;;;;;;8.98;8.30;;;;;;;11.41;100.00;95357.38;5057179;28;20543;-73
2023/05/16 07:22:04;;;;;;;8.95;8.25;;;;;;;11.57;100.00;95344.28;5053478;28;20036;-72
2023/05/16 07:24:29;;;;;;;9.32;8.52;;;;;;;11.54;100.00;95359.59;5049909;28;20025;-72
2023/05/16 07:26:55;;;;;;;11.85;9.63;;;;;;;11.50;100.00;95358.25;5054254;28;20029;-73
2023/05/16 07:29:20;;;;;;;10.52;9.40;;;;;;;11.44;100.00;95346.50;5055167;28;20040;-73
2023/05/16 07:31:45;;;;;;;9.40;8.60;;;;;;;11.43;100.00;95347.50;5055040;28;20032;-72
2023/05/16 07:34:11;;;;;;;8.85;8.15;;;;;;;11.49;100.00;95367.16;5054600;28;20025;-73
2023/05/16 07:36:37;;;;;;;8.55;7.95;;;;;;;11.54;100.00;95364.88;5050427;28;20035;-72
2023/05/16 07:39:03;;;;;;;9.02;8.30;;;;;;;11.50;100.00;95359.09;5051460;28;20049;-73
2023/05/16 07:41:29;;;;;;;10.30;9.40;;;;;;;11.51;100.00;95360.75;5054039;28;20075;-73
2023/05/16 07:43:54;;;;;;;11.80;10.80;;;;;;;11.56;100.00;95355.81;5054533;28;20021;-72
2023/05/16 07:46:19;;;;;;;9.52;8.77;;;;;;;11.56;100.00;95355.81;5053395;28;20013;-74
2023/05/16 07:48:45;;;;;;;9.60;8.80;;;;;;;11.56;100.00;95361.09;5051761;28;20035;-72
2023/05/16 07:51:10;;;;;;;9.77;8.98;;;;;;;11.49;100.00;95354.78;5054059;28;20127;-72
2023/05/16 07:53:36;;;;;;;9.10;8.50;;;;;;;11.61;100.00;95360.63;5054343;28;20013;-73
2023/05/16 07:56:01;;;;;;;10.00;9.20;;;;;;;11.45;100.00;95356.91;5052894;28;20363;-72
2023/05/16 07:58:27;;;;;;;10.50;9.45;;;;;;;11.44;100.00;95360.53;5054701;28;20104;-73
2023/05/16 08:00:53;;;;;;;9.75;8.85;;;;;;;11.55;100.00;95350.69;5036137;28;20059;-73
2023/05/16 08:03:18;;;;;;;9.38;8.65;;;;;;;11.50;100.00;95351.19;5050520;28;20041;-74
2023/05/16 08:05:43;;;;;;;9.27;8.52;;;;;;;11.44;100.00;95339.44;5054165;28;20029;-73
2023/05/16 08:08:09;;;;;;;9.05;8.35;;;;;;;11.30;100.00;95337.38;5055061;28;20009;-73
2023/05/16 08:10:34;;;;;;;10.40;9.50;;;;;;;11.36;100.00;95346.47;5061189;28;20440;-73
2023/05/16 08:13:00;;;;;;;9.77;9.07;;;;;;;11.40;100.00;95342.53;5058941;28;20085;-72
2023/05/16 08:15:27;;;;;;;10.15;9.02;;;;;;;11.49;100.00;95340.78;5057267;28;20163;-74
2023/05/16 08:17:58;;;;;;;8.82;8.15;;;;;;;11.61;100.00;95339.53;5058667;28;20552;-72
2023/05/16 08:20:24;;;;;;;10.98;8.25;;;;;;;11.61;100.00;95332.44;5058191;28;20044;-72
2023/05/16 08:22:51;;;;;;;8.85;8.15;;;;;;;11.58;100.00;95334.56;5059545;28;20021;-72
2023/05/16 08:25:16;;;;;;;8.90;8.20;;;;;;;11.78;100.00;95339.59;5055720;28;20468;-73
2023/05/16 08:27:41;;;;;;;9.23;8.38;;;;;;;11.63;100.00;95339.38;5059263;28;20029;-73
2023/05/16 08:30:07;;;;;;;9.77;9.07;;;;;;;11.53;100.00;95344.75;5059927;28;20492;-72
2023/05/16 08:32:33;;;;;;;9.93;8.68;;;;;;;11.61;100.00;95340.34;5057850;28;20047;-72
2023/05/16 08:34:59;;;;;;;9.38;8.48;;;;;;;11.60;100.00;95343.13;5059482;28;20514;-72
2023/05/16 08:37:24;;;;;;;10.00;9.10;;;;;;;11.65;100.00;95345.31;5060584;28;20021;-73
2023/05/16 08:39:50;;;;;;;11.13;8.57;;;;;;;11.71;100.00;95327.06;5059258;28;20037;-72
2023/05/16 08:42:15;;;;;;;9.30;8.50;;;;;;;11.70;100.00;95328.03;5058641;28;20036;-73
2023/05/16 08:44:41;;;;;;;9.02;8.32;;;;;;;11.84;100.00;95329.25;5058216;28;20021;-73
2023/05/16 08:47:15;;;;;;;7.97;7.35;;;;;;;11.80;100.00;95332.34;5058560;28;20036;-73
2023/05/16 08:49:41;;;;;;;8.48;7.88;;;;;;;11.88;100.00;95330.59;5057499;28;20109;-72
2023/05/16 08:52:08;;;;;;;8.27;7.47;;;;;;;12.00;100.00;95327.66;5059678;28;20025;-72
2023/05/16 08:54:35;;;;;;;8.52;7.72;;;;;;;12.03;100.00;95328.19;5058795;28;20016;-72
2023/05/16 08:57:01;;;;;;;8.30;7.63;;;;;;;12.00;100.00;95325.03;5059808;28;20523;-73
2023/05/16 08:59:27;;;;;;;8.50;7.80;;;;;;;12.06;100.00;95324.41;5058900;28;20051;-71
2023/05/16 09:01:54;;;;;;;8.15;7.35;;;;;;;11.96;100.00;95319.25;5059131;28;20516;-73
2023/05/16 09:04:19;;;;;;;8.38;7.72;;;;;;;11.90;100.00;95323.34;5056080;28;20032;-73
2023/05/16 09:06:45;;;;;;;8.32;7.65;;;;;;;11.87;100.00;95322.84;5060291;28;20541;-72
2023/05/16 09:09:11;;;;;;;8.35;7.65;;;;;;;11.84;100.00;95317.91;5057563;28;20529;-72
2023/05/16 09:11:37;;;;;;;8.27;7.68;;;;;;;12.08;100.00;95322.44;5075036;28;20090;-72
2023/05/16 09:14:04;;;;;;;9.10;8.48;;;;;;;11.98;100.00;95317.25;5054573;28;20017;-73
2023/05/16 09:16:30;;;;;;;8.10;7.50;;;;;;;12.02;100.00;95313.34;5055473;28;20024;-73
2023/05/16 09:18:57;;;;;;;9.15;8.45;;;;;;;12.05;100.00;95309.56;5074369;28;20033;-72
2023/05/16 09:21:28;;;;;;;7.97;7.43;;;;;;;12.18;100.00;95309.09;5056692;28;20033;-72
2023/05/16 09:23:54;;;;;;;8.10;7.30;;;;;;;12.27;100.00;95313.44;5053733;28;20103;-72
2023/05/16 09:26:20;;;;;;;8.48;7.78;;;;;;;12.36;100.00;95316.09;5054734;28;20056;-73
2023/05/16 09:28:46;;;;;;;7.53;6.88;;;;;;;12.29;100.00;95295.63;5056911;28;20020;-73
2023/05/16 09:31:25;;;;;;;7.95;7.07;;;;;;;12.32;100.00;95311.13;5038059;28;20127;-73
2023/05/16 09:33:51;;;;;;;8.25;7.50;;;;;;;12.28;100.00;95299.25;5054353;28;20393;-73
2023/05/16 09:36:16;;;;;;;7.72;7.13;;;;;;;12.30;100.00;95294.63;5053298;28;20052;-73
2023/05/16 09:38:43;;;;;;;7.22;6.63;;;;;;;12.37;100.00;95300.06;5057295;28;20029;-72
2023/05/16 09:41:10;;;;;;;7.43;6.82;;;;;;;12.31;100.00;95296.28;5053120;28;20539;-73
2023/05/16 09:43:41;;;;;;;8.40;7.75;;;;;;;12.32;100.00;95282.09;5055247;28;20028;-73
2023/05/16 09:46:07;;;;;;;7.57;6.95;;;;;;;12.47;100.00;95286.72;5055360;28;20095;-73
2023/05/16 09:48:33;;;;;;;8.10;7.50;;;;;;;12.32;100.00;95284.72;5061970;28;20025;-73
2023/05/16 09:51:03;;;;;;;7.85;7.00;;;;;;;12.34;100.00;95286.38;5059012;28;20038;-73
2023/05/16 09:53:32;;;;;;;7.75;7.07;;;;;;;12.29;100.00;95282.44;5058340;28;20390;-73
2023/05/16 09:56:06;;;;;;;7.55;6.88;;;;;;;12.33;100.00;95285.53;5046764;28;20037;-73
2023/05/16 09:58:34;;;;;;;8.55;7.53;;;;;;;12.38;100.00;95293.81;5056344;28;20058;-73
2023/05/16 10:01:00;;;;;;;7.35;6.63;;;;;;;12.32;100.00;95284.72;5054220;28;20086;-73
2023/05/16 10:03:26;;;;;;;7.40;6.80;;;;;;;12.31;100.00;95293.63;5054707;28;20258;-73
2023/05/16 10:05:55;;;;;;;6.07;5.63;;;;;;;12.48;100.00;95306.03;5053162;28;20414;-72
2023/05/16 10:08:24;;;;;;;6.45;5.85;;;;;;;12.46;100.00;95300.91;5057737;28;20035;-73
2023/05/16 10:10:54;;;;;;;6.32;5.72;;;;;;;12.39;100.00;95299.91;5051806;28;20101;-73
2023/05/16 10:13:21;;;;;;;5.72;5.22;;;;;;;12.35;100.00;95291.47;5054376;28;20116;-72
2023/05/16 10:15:48;;;;;;;6.43;5.93;;;;;;;12.29;100.00;95289.50;5051547;28;20045;-71
2023/05/16 10:18:17;;;;;;;6.57;5.88;;;;;;;12.26;100.00;95285.38;5052482;28;20025;-72
2023/05/16 10:20:44;;;;;;;6.53;5.90;;;;;;;12.26;100.00;95298.56;5056439;28;20109;-72
2023/05/16 10:23:16;;;;;;;6.63;6.20;;;;;;;12.21;100.00;95292.13;5056687;28;20088;-73
2023/05/16 10:25:44;;;;;;;7.32;6.75;;;;;;;12.44;100.00;95293.16;5050896;28;20055;-72
2023/05/16 10:28:10;;;;;;;6.38;5.68;;;;;;;12.38;100.00;95282.44;5056256;28;20432;-73
2023/05/16 10:30:39;;;;;;;6.22;5.75;;;;;;;12.50;100.00;95296.97;5055919;28;20017;-72
2023/05/16 10:33:05;;;;;;;5.45;4.97;;;;;;;12.35;100.00;95291.47;5039037;28;20024;-72
2023/05/16 10:35:31;;;;;;;5.45;4.95;;;;;;;12.27;100.00;95294.13;5054820;28;20488;-73
2023/05/16 10:37:59;;;;;;;5.80;5.32;;;;;;;12.33;100.00;95311.94;5054962;28;20104;-73
2023/05/16 10:40:26;;;;;;;5.75;5.20;;;;;;;12.28;100.00;95296.63;5055954;28;20521;-73
2023/05/16 10:43:09;;;;;;;4.95;4.65;;;;;;;11.85;100.00;95311.63;5055631;28;20032;-74
2023/05/16 10:45:40;;;;;;;4.95;4.65;;;;;;;11.77;100.00;95306.31;5053511;28;20106;-73
2023/05/16 10:48:08;;;;;;;6.25;5.07;;;;;;;11.69;100.00;95297.38;5053751;28;20024;-73
2023/05/16 10:50:39;;;;;;;5.07;4.68;;;;;;;11.66;100.00;95312.69;5060799;28;20197;-73
2023/05/16 10:53:29;;;;;;;5.03;4.72;;;;;;;11.84;100.00;95329.25;5054425;28;20397;-74
2023/05/16 10:56:05;;;;;;;5.38;4.85;;;;;;;11.82;100.00;95328.59;5055790;28;20102;-74
2023/05/16 10:58:39;;;;;;;4.82;4.45;;;;;;;11.83;100.00;95316.25;5054396;28;20020;-73
2023/05/16 11:01:22;;;;;;;5.22;4.72;;;;;;;11.72;100.00;95299.69;5054537;28;20473;-72
2023/05/16 11:03:59;;;;;;;5.35;4.95;;;;;;;11.81;100.00;95312.91;5047084;28;20045;-73
2023/05/16 11:06:40;;;;;;;4.47;4.25;;;;;;;12.15;100.00;95320.00;5050560;28;20029;-74
2023/05/16 11:09:12;;;;;;;4.55;4.32;;;;;;;12.12;100.00;95312.41;5053014;28;20040;-73
2023/05/16 11:11:47;;;;;;;4.38;4.07;;;;;;;12.39;100.00;95319.22;5055167;28;20032;-74
2023/05/16 11:14:36;;;;;;;3.88;3.65;;;;;;;12.39;100.00;95318.41;5051407;28;20021;-74
2023/05/16 11:17:07;;;;;;;7.25;4.32;;;;;;;12.72;100.00;95324.53;5050565;28;20037;-75
2023/05/16 11:19:44;;;;;;;4.07;3.88;;;;;;;12.84;100.00;95321.59;5054118;28;20033;-73
2023/05/16 11:22:18;;;;;;;4.72;4.40;;;;;;;12.98;100.00;95309.53;5054463;28;20051;-74
2023/05/16 11:24:51;;;;;;;4.18;3.97;;;;;;;13.08;100.00;95317.28;5055562;28;20032;-73
2023/05/16 11:27:28;;;;;;;4.45;4.25;;;;;;;13.10;100.00;95305.53;5054410;28;20033;-73